Time;durP1;ratioP1;P1;durP2;ratioP2;P2;SDS_P1;SDS_P2;PMS_P1;PMS_P2;Temp;Humidity;BMP_temperature;BMP_pressure;BME280_temperature;BME280_humidity;BME280_pressure;Samples;Min_cycle;Max_cycle;Signal;HPM_P1;HPM_P2
2023/01/29 00:01:25;;;;;;;26.43;13.83;;;5.80;99.90;;;;;;5050328;28;20169;-58
2023/01/29 00:03:51;;;;;;;24.70;13.57;;;5.70;99.90;;;;;;5050287;28;20165;-59
2023/01/29 00:06:17;;;;;;;25.47;14.17;;;5.60;99.90;;;;;;5050276;28;20170;-59
2023/01/29 00:08:43;;;;;;;25.60;13.73;;;5.50;99.90;;;;;;5032231;28;20590;-58
2023/01/29 00:11:09;;;;;;;26.00;14.50;;;5.50;99.90;;;;;;5049705;28;20186;-58
2023/01/29 00:13:35;;;;;;;29.70;14.67;;;5.40;99.90;;;;;;5049896;28;20181;-58
2023/01/29 00:16:01;;;;;;;29.83;14.20;;;5.40;99.90;;;;;;5049590;28;20208;-58
2023/01/29 00:18:28;;;;;;;26.77;14.60;;;5.20;99.90;;;;;;5050017;28;20184;-59
2023/01/29 00:20:54;;;;;;;32.10;15.20;;;5.40;99.90;;;;;;5049940;28;20177;-58
2023/01/29 00:23:21;;;;;;;29.30;14.87;;;5.40;99.90;;;;;;5048297;28;20330;-59
2023/01/29 00:25:46;;;;;;;24.97;13.90;;;5.50;99.90;;;;;;5049925;28;20634;-58
2023/01/29 00:28:12;;;;;;;29.63;14.37;;;5.60;99.90;;;;;;5049788;28;20177;-58
2023/01/29 00:30:38;;;;;;;25.60;14.03;;;5.70;99.90;;;;;;5049947;28;20260;-58
2023/01/29 00:33:04;;;;;;;27.70;14.00;;;5.70;99.90;;;;;;5049623;28;20572;-58
2023/01/29 00:35:30;;;;;;;21.73;12.40;;;5.60;99.90;;;;;;5049934;28;20169;-58
2023/01/29 00:37:56;;;;;;;19.53;11.60;;;5.60;99.90;;;;;;5052255;28;20185;-58
2023/01/29 00:40:23;;;;;;;28.27;12.33;;;5.70;99.90;;;;;;5053167;28;20272;-58
2023/01/29 00:45:35;;;;;;;23.13;9.93;;;5.70;99.90;;;;;;5053381;28;20288;-58
2023/01/29 00:48:01;;;;;;;23.10;10.77;;;5.80;99.90;;;;;;5052858;28;20260;-58
2023/01/29 00:50:27;;;;;;;26.07;11.07;;;5.80;99.90;;;;;;5052964;28;20173;-58
2023/01/29 00:52:53;;;;;;;20.60;9.73;;;6.10;99.90;;;;;;5052755;28;20204;-58
2023/01/29 00:55:19;;;;;;;23.47;11.00;;;6.50;99.90;;;;;;5053092;28;20181;-58
2023/01/29 00:57:45;;;;;;;23.30;9.83;;;5.80;99.90;;;;;;5052782;28;20208;-58
2023/01/29 01:00:14;;;;;;;19.90;10.07;;;5.90;99.90;;;;;;5053046;28;20655;-59
2023/01/29 01:05:24;;;;;;;22.10;9.50;;;5.90;99.90;;;;;;5052849;28;20191;-58
2023/01/29 01:07:52;;;;;;;21.40;10.87;;;5.90;99.90;;;;;;5052579;28;20604;-59
2023/01/29 01:10:22;;;;;;;18.57;10.30;;;5.90;99.90;;;;;;5052193;28;20181;-58
2023/01/29 01:13:07;;;;;;;17.10;9.57;;;5.90;99.90;;;;;;5051936;28;20201;-58
2023/01/29 01:15:35;;;;;;;18.30;10.37;;;5.90;99.90;;;;;;5052082;28;20177;-58
2023/01/29 01:18:02;;;;;;;16.33;10.27;;;5.90;99.90;;;;;;5052299;28;20187;-58
2023/01/29 01:20:30;;;;;;;20.27;10.20;;;5.90;99.90;;;;;;5052703;28;20176;-59
2023/01/29 01:22:56;;;;;;;26.83;11.17;;;5.90;99.90;;;;;;5052530;28;20219;-59
2023/01/29 01:25:23;;;;;;;19.90;10.20;;;5.90;99.90;;;;;;5052627;28;20269;-59
2023/01/29 01:27:53;;;;;;;20.50;9.87;;;5.70;99.90;;;;;;5052458;28;20173;-59
2023/01/29 01:30:19;;;;;;;19.10;10.17;;;5.70;99.90;;;;;;5052432;28;20671;-59
2023/01/29 01:32:45;;;;;;;18.10;10.10;;;5.90;99.90;;;;;;5052366;28;20213;-59
2023/01/29 01:35:13;;;;;;;18.97;9.43;;;6.10;99.90;;;;;;5052240;28;20245;-59
2023/01/29 01:37:39;;;;;;;20.77;9.60;;;6.00;99.90;;;;;;5052275;28;20667;-59
2023/01/29 01:40:11;;;;;;;22.80;9.77;;;5.90;99.90;;;;;;5052347;28;20165;-59
2023/01/29 01:42:40;;;;;;;16.23;9.80;;;6.10;99.90;;;;;;5052552;28;20181;-59
2023/01/29 01:45:16;;;;;;;21.07;10.03;;;6.00;99.90;;;;;;5052241;28;20201;-59
2023/01/29 01:47:49;;;;;;;18.37;9.80;;;6.00;99.90;;;;;;5051951;28;20259;-59
2023/01/29 01:50:20;;;;;;;17.40;10.00;;;6.00;99.90;;;;;;5051543;28;20183;-59
2023/01/29 01:52:51;;;;;;;18.27;9.90;;;6.00;99.90;;;;;;5051969;28;20173;-59
2023/01/29 01:55:20;;;;;;;18.93;10.73;;;6.10;99.90;;;;;;5051775;28;20181;-59
2023/01/29 01:57:49;;;;;;;19.50;10.63;;;6.10;99.90;;;;;;5051758;28;20685;-59
2023/01/29 02:00:17;;;;;;;20.53;11.20;;;6.00;99.90;;;;;;5051647;28;20177;-59
2023/01/29 02:11:12;;;;;;;23.23;12.00;;;6.10;99.90;;;;;;5034054;28;20317;-58
2023/01/29 02:13:38;;;;;;;23.17;11.20;;;6.00;99.90;;;;;;5051198;28;20267;-59
2023/01/29 02:16:04;;;;;;;23.80;11.80;;;5.80;99.90;;;;;;5050908;28;20201;-59
2023/01/29 02:18:36;;;;;;;23.70;11.20;;;6.20;99.90;;;;;;5051270;28;20188;-58
2023/01/29 02:21:24;;;;;;;22.20;11.50;;;6.00;99.90;;;;;;5040504;28;20181;-59
2023/01/29 02:24:17;;;;;;;26.57;12.23;;;6.20;99.90;;;;;;5051452;28;20165;-59
2023/01/29 02:27:10;;;;;;;22.70;11.97;;;6.30;99.90;;;;;;5031437;28;20185;-59
2023/01/29 02:29:46;;;;;;;25.07;12.90;;;6.10;99.90;;;;;;4988178;28;20200;-59
2023/01/29 02:32:29;;;;;;;25.20;13.77;;;6.10;99.90;;;;;;5050976;28;20208;-59
2023/01/29 02:35:27;;;;;;;30.67;13.87;;;6.10;99.90;;;;;;5050983;28;20192;-59
2023/01/29 02:38:30;;;;;;;26.60;14.03;;;6.00;99.90;;;;;;5037134;28;20213;-58
2023/01/29 02:41:22;;;;;;;29.80;13.40;;;5.90;99.90;;;;;;5031103;28;20166;-58
2023/01/29 02:43:52;;;;;;;30.93;15.13;;;6.80;99.90;;;;;;5031172;28;20170;-59
2023/01/29 02:46:28;;;;;;;25.63;14.30;;;6.00;99.90;;;;;;5030962;28;20228;-58
2023/01/29 02:49:15;;;;;;;34.03;14.87;;;6.00;99.90;;;;;;5031091;28;20236;-56
2023/01/29 02:51:58;;;;;;;29.13;15.60;;;5.90;99.90;;;;;;5031028;28;20184;-59
2023/01/29 02:54:31;;;;;;;32.33;15.57;;;5.90;99.90;;;;;;5049846;28;20245;-59
2023/01/29 02:56:59;;;;;;;28.37;14.97;;;5.90;99.90;;;;;;5050606;28;20244;-58
2023/01/29 02:59:38;;;;;;;31.13;16.13;;;5.90;99.90;;;;;;5050163;28;20651;-59
2023/01/29 03:02:15;;;;;;;29.37;15.00;;;5.80;99.90;;;;;;5049875;28;20172;-58
2023/01/29 03:04:45;;;;;;;34.70;15.17;;;5.80;99.90;;;;;;5050706;28;20487;-59
2023/01/29 03:10:15;;;;;;;35.67;16.17;;;5.80;99.90;;;;;;5050497;28;20614;-58
2023/01/29 03:12:44;;;;;;;28.63;15.97;;;5.80;99.90;;;;;;5050294;28;20266;-59
2023/01/29 03:15:23;;;;;;;38.63;16.33;;;5.80;99.90;;;;;;5050265;28;20176;-58
2023/01/29 03:18:11;;;;;;;29.73;15.50;;;5.80;99.90;;;;;;5050031;28;20263;-58
2023/01/29 03:20:47;;;;;;;32.80;15.77;;;5.80;99.90;;;;;;5044793;28;20177;-58
2023/01/29 03:23:26;;;;;;;32.47;16.50;;;5.70;99.90;;;;;;5050162;28;20648;-58
2023/01/29 03:34:33;;;;;;;32.80;15.00;;;5.80;99.90;;;;;;5050198;28;20525;-59
2023/01/29 03:37:18;;;;;;;32.90;16.60;;;5.90;99.90;;;;;;5050235;28;20204;-58
2023/01/29 03:39:44;;;;;;;31.93;15.80;;;5.90;99.90;;;;;;5050317;28;20169;-58
2023/01/29 03:42:53;;;;;;;35.27;15.87;;;5.90;99.90;;;;;;5050238;28;20173;-58
2023/01/29 03:45:22;;;;;;;34.43;15.17;;;5.90;99.90;;;;;;5030507;28;20208;-58
2023/01/29 03:48:09;;;;;;;39.13;15.50;;;5.90;99.90;;;;;;5030293;28;20166;-59
2023/01/29 03:51:00;;;;;;;36.67;15.67;;;5.90;99.90;;;;;;5030451;28;20182;-58
2023/01/29 03:53:50;;;;;;;29.80;15.17;;;5.90;99.90;;;;;;5030280;28;20173;-59
2023/01/29 03:56:31;;;;;;;34.57;15.57;;;6.00;99.90;;;;;;5030088;28;20209;-59
2023/01/29 03:58:59;;;;;;;33.90;14.43;;;6.10;99.90;;;;;;5044039;28;20187;-58
2023/01/29 04:01:47;;;;;;;35.63;15.37;;;6.10;99.90;;;;;;5049611;28;20268;-59
2023/01/29 04:04:15;;;;;;;35.33;15.07;;;6.10;99.90;;;;;;5049978;28;20184;-58
2023/01/29 04:06:44;;;;;;;40.40;15.53;;;6.10;99.90;;;;;;5049790;28;20257;-59
2023/01/29 04:09:37;;;;;;;35.50;15.30;;;6.10;99.90;;;;;;5050015;28;20181;-59
2023/01/29 04:12:10;;;;;;;36.70;14.37;;;6.10;99.90;;;;;;5040014;28;20268;-59
2023/01/29 04:14:37;;;;;;;39.80;15.43;;;6.10;99.90;;;;;;5053540;28;20181;-59
2023/01/29 04:17:13;;;;;;;38.03;16.37;;;6.20;99.90;;;;;;5035428;28;20334;-59
2023/01/29 04:19:39;;;;;;;34.33;15.20;;;6.20;99.90;;;;;;5053678;28;20635;-59
2023/01/29 04:22:15;;;;;;;29.83;15.07;;;6.20;99.90;;;;;;5035721;28;20635;-59
2023/01/29 04:24:41;;;;;;;37.57;15.47;;;6.10;99.90;;;;;;5053466;28;20306;-59
2023/01/29 04:27:35;;;;;;;28.23;13.73;;;6.90;99.90;;;;;;5053788;28;20165;-58
2023/01/29 04:30:24;;;;;;;28.30;12.40;;;6.20;99.90;;;;;;5052986;28;20170;-59
2023/01/29 04:33:02;;;;;;;25.60;12.03;;;6.20;99.90;;;;;;5053368;28;20265;-59
2023/01/29 04:35:35;;;;;;;30.27;12.40;;;6.30;99.90;;;;;;5047977;28;20178;-59
2023/01/29 04:38:19;;;;;;;33.57;14.13;;;6.20;99.90;;;;;;5043573;28;20236;-59
2023/01/29 04:40:47;;;;;;;25.40;13.43;;;6.30;99.90;;;;;;5052997;28;20230;-59
2023/01/29 04:43:27;;;;;;;26.50;12.83;;;6.30;99.90;;;;;;5052679;28;20604;-58
2023/01/29 04:46:16;;;;;;;26.90;12.43;;;6.20;99.90;;;;;;5053171;28;20181;-58
2023/01/29 04:49:13;;;;;;;27.33;13.57;;;6.30;99.90;;;;;;5052953;28;20192;-58
2023/01/29 04:51:41;;;;;;;35.73;12.90;;;6.30;99.90;;;;;;5035358;28;20538;-59
2023/01/29 04:54:17;;;;;;;25.37;12.43;;;6.30;99.90;;;;;;5053026;28;20173;-58
2023/01/29 04:57:08;;;;;;;27.67;13.03;;;6.90;99.90;;;;;;5035137;28;20334;-58
2023/01/29 04:59:41;;;;;;;30.73;13.47;;;6.30;99.90;;;;;;5052822;28;20173;-59
2023/01/29 05:02:10;;;;;;;32.47;13.87;;;6.30;99.90;;;;;;5052746;28;20189;-58
2023/01/29 05:04:38;;;;;;;26.70;13.33;;;6.30;99.90;;;;;;5052722;28;20169;-59
2023/01/29 05:07:07;;;;;;;33.37;12.60;;;6.20;99.90;;;;;;5052650;28;20177;-58
2023/01/29 05:09:34;;;;;;;27.63;13.40;;;6.30;99.90;;;;;;5052742;28;20184;-58
2023/01/29 05:12:01;;;;;;;27.57;13.00;;;6.30;99.90;;;;;;5052571;28;20216;-59
2023/01/29 05:14:29;;;;;;;26.70;13.80;;;6.20;99.90;;;;;;5052633;28;20177;-58
2023/01/29 05:16:57;;;;;;;24.63;12.03;;;6.40;99.90;;;;;;5034445;28;20205;-59
2023/01/29 05:19:23;;;;;;;26.17;12.40;;;6.40;99.90;;;;;;5051717;28;20654;-58
2023/01/29 05:21:49;;;;;;;28.17;12.97;;;6.40;99.90;;;;;;5052407;28;20177;-58
2023/01/29 05:24:18;;;;;;;31.10;12.53;;;6.40;99.90;;;;;;5033976;28;20188;-58
2023/01/29 05:29:31;;;;;;;24.67;12.80;;;6.40;99.90;;;;;;5052821;28;20192;-58
2023/01/29 05:31:56;;;;;;;32.50;13.73;;;6.40;99.90;;;;;;5052224;28;20173;-58
2023/01/29 05:34:22;;;;;;;28.80;12.87;;;6.40;99.90;;;;;;5052113;28;20307;-58
2023/01/29 05:36:48;;;;;;;29.60;14.57;;;6.50;99.90;;;;;;5052326;28;20292;-58
2023/01/29 05:39:14;;;;;;;33.27;12.83;;;6.50;99.90;;;;;;5052136;28;20205;-59
2023/01/29 05:41:40;;;;;;;28.93;12.60;;;6.50;99.90;;;;;;5052112;28;20588;-59
2023/01/29 05:44:05;;;;;;;26.67;12.17;;;6.50;99.90;;;;;;5051826;28;20169;-59
2023/01/29 05:46:31;;;;;;;25.03;12.47;;;;;;;;;;5051645;28;20169;-57
2023/01/29 05:48:58;;;;;;;25.27;12.30;;;6.50;99.90;;;;;;5051498;28;20181;-57
2023/01/29 05:51:23;;;;;;;27.13;12.20;;;6.50;99.90;;;;;;5051451;28;20212;-59
2023/01/29 05:53:49;;;;;;;26.93;12.40;;;6.60;99.90;;;;;;5051659;28;20567;-57
2023/01/29 05:56:15;;;;;;;24.13;12.23;;;6.60;99.90;;;;;;5051728;28;20276;-57
2023/01/29 05:58:40;;;;;;;26.07;11.83;;;6.50;99.90;;;;;;5051695;28;20632;-57
2023/01/29 06:01:17;;;;;;;21.93;11.73;;;6.50;99.90;;;;;;5051370;28;20181;-57
2023/01/29 06:03:44;;;;;;;25.97;9.53;;;6.50;99.90;;;;;;5051722;28;20192;-57
2023/01/29 06:06:10;;;;;;;24.03;10.33;;;6.50;99.90;;;;;;5051355;28;20264;-57
2023/01/29 06:08:36;;;;;;;24.93;9.13;;;6.60;99.90;;;;;;5051566;28;20181;-59
2023/01/29 06:11:01;;;;;;;18.60;8.93;;;6.70;99.90;;;;;;5051416;28;20185;-59
2023/01/29 06:13:27;;;;;;;15.50;8.03;;;6.50;99.90;;;;;;5051281;28;20218;-59
2023/01/29 06:15:53;;;;;;;22.73;8.90;;;6.70;99.90;;;;;;5050721;28;20264;-59
2023/01/29 06:18:18;;;;;;;15.67;8.17;;;6.70;99.90;;;;;;5050898;28;20192;-59
2023/01/29 06:20:44;;;;;;;18.43;7.83;;;6.60;99.90;;;;;;5051208;28;20958;-57
2023/01/29 06:23:10;;;;;;;14.43;6.63;;;6.70;99.90;;;;;;5051022;28;20177;-57
2023/01/29 06:25:35;;;;;;;11.80;5.73;;;6.80;99.90;;;;;;5051110;28;20208;-59
2023/01/29 06:28:01;;;;;;;9.10;4.17;;;6.80;99.90;;;;;;5051055;28;20177;-57
2023/01/29 06:30:27;;;;;;;7.27;4.80;;;6.90;99.90;;;;;;5050518;28;20934;-57
2023/01/29 06:33:02;;;;;;;8.80;3.90;;;7.00;99.90;;;;;;5050935;28;20283;-59
2023/01/29 06:35:28;;;;;;;7.93;3.50;;;7.00;99.90;;;;;;5050334;28;20176;-58
2023/01/29 06:37:55;;;;;;;6.57;3.17;;;7.50;99.90;;;;;;5050735;28;20573;-58
2023/01/29 06:40:20;;;;;;;7.43;3.07;;;7.10;99.90;;;;;;5049884;28;20227;-58
2023/01/29 06:42:46;;;;;;;12.00;3.53;;;7.10;99.90;;;;;;5050037;28;20547;-59
2023/01/29 06:45:12;;;;;;;8.40;4.27;;;7.10;99.90;;;;;;5050671;28;20604;-57
2023/01/29 06:47:38;;;;;;;11.40;4.90;;;7.10;99.90;;;;;;5048685;28;20180;-60
2023/01/29 06:50:04;;;;;;;6.97;3.80;;;7.00;99.90;;;;;;5050578;28;20173;-57
2023/01/29 06:52:30;;;;;;;9.73;4.73;;;;;;;;;;5050641;28;20213;-57
2023/01/29 06:54:56;;;;;;;8.90;4.40;;;;;;;;;;5050595;28;20644;-57
2023/01/29 06:57:22;;;;;;;10.50;4.60;;;7.00;99.90;;;;;;5050328;28;20220;-57
2023/01/29 06:59:48;;;;;;;9.13;4.80;;;7.00;99.90;;;;;;5050673;28;20185;-57
2023/01/29 07:02:14;;;;;;;7.10;4.33;;;7.00;99.90;;;;;;5050378;28;20713;-57
2023/01/29 07:04:40;;;;;;;9.30;4.53;;;7.00;99.90;;;;;;5030799;28;20211;-57
2023/01/29 07:07:11;;;;;;;8.93;3.97;;;7.00;99.90;;;;;;5030797;28;20177;-57
2023/01/29 07:09:41;;;;;;;7.27;3.63;;;7.00;99.90;;;;;;5049044;28;20204;-57
2023/01/29 07:12:07;;;;;;;10.03;4.60;;;;;;;;;;5050445;28;20203;-57
2023/01/29 07:14:33;;;;;;;15.27;5.23;;;7.20;99.90;;;;;;5050514;28;20239;-57
2023/01/29 07:16:58;;;;;;;7.97;3.90;;;7.00;99.90;;;;;;5050171;28;20376;-57
2023/01/29 07:19:24;;;;;;;7.03;4.00;;;7.10;99.90;;;;;;5050130;28;20173;-57
2023/01/29 07:21:50;;;;;;;6.33;3.50;;;7.10;99.90;;;;;;5032201;28;20181;-57
2023/01/29 07:24:15;;;;;;;6.07;3.50;;;7.10;99.90;;;;;;5049994;28;20176;-58
2023/01/29 07:26:41;;;;;;;8.23;4.10;;;7.20;99.90;;;;;;5050270;28;20619;-57
2023/01/29 07:29:07;;;;;;;13.10;4.17;;;7.00;99.90;;;;;;5050311;28;20331;-57
2023/01/29 07:31:32;;;;;;;9.23;4.53;;;7.20;99.90;;;;;;5050385;28;20197;-57
2023/01/29 07:33:58;;;;;;;10.30;4.60;;;7.20;99.90;;;;;;5050129;28;20600;-57
2023/01/29 07:36:24;;;;;;;8.70;4.83;;;7.20;99.90;;;;;;5050151;28;20200;-57
2023/01/29 07:38:50;;;;;;;8.97;4.87;;;6.60;99.90;;;;;;5050330;28;20255;-57
2023/01/29 07:41:16;;;;;;;11.57;4.73;;;7.10;99.90;;;;;;5050179;28;20165;-55
2023/01/29 07:43:41;;;;;;;10.43;4.93;;;7.10;99.90;;;;;;5050020;28;20235;-55
2023/01/29 07:46:07;;;;;;;9.60;4.87;;;7.10;99.90;;;;;;5050262;28;20604;-55
2023/01/29 07:48:33;;;;;;;10.20;5.07;;;7.10;99.90;;;;;;5053983;28;20184;-55
2023/01/29 07:50:59;;;;;;;11.87;4.50;;;6.90;99.90;;;;;;5053566;28;20169;-55
2023/01/29 07:53:25;;;;;;;9.40;4.17;;;7.10;99.90;;;;;;5053247;28;20683;-55
2023/01/29 07:55:51;;;;;;;9.10;3.47;;;8.40;99.90;;;;;;5052988;28;20193;-56
2023/01/29 07:58:17;;;;;;;9.80;3.30;;;7.20;99.90;;;;;;5053625;28;20180;-55
2023/01/29 08:00:43;;;;;;;6.33;3.87;;;7.40;99.90;;;;;;5053508;28;20650;-55
2023/01/29 08:03:12;;;;;;;8.33;4.27;;;7.50;99.90;;;;;;5053795;28;20200;-56
2023/01/29 08:05:37;;;;;;;8.67;4.40;;;7.80;99.90;;;;;;5054026;28;20311;-56
2023/01/29 08:08:03;;;;;;;8.10;4.13;;;7.30;99.90;;;;;;5053862;28;20632;-57
2023/01/29 08:10:28;;;;;;;7.83;4.10;;;7.30;99.90;;;;;;5054030;28;20218;-56
2023/01/29 08:12:59;;;;;;;12.07;4.43;;;7.30;99.90;;;;;;5045833;28;20263;-56
2023/01/29 08:15:26;;;;;;;6.70;4.30;;;8.10;99.90;;;;;;5033784;28;20174;-55
2023/01/29 08:17:52;;;;;;;6.67;3.80;;;7.30;99.90;;;;;;5033798;28;20284;-55
2023/01/29 08:20:18;;;;;;;9.03;4.00;;;7.40;99.90;;;;;;5033910;28;20300;-56
2023/01/29 08:22:45;;;;;;;7.63;3.90;;;7.60;99.90;;;;;;5033605;28;20253;-56
2023/01/29 08:25:11;;;;;;;5.27;3.40;;;7.20;99.90;;;;;;5044294;28;20189;-56
2023/01/29 08:27:37;;;;;;;9.40;4.30;;;7.60;99.90;;;;;;5053304;28;20184;-56
2023/01/29 08:30:04;;;;;;;5.57;3.60;;;7.40;99.90;;;;;;5053443;28;20177;-56
2023/01/29 08:32:29;;;;;;;6.30;3.57;;;7.40;99.90;;;;;;5052854;28;20212;-55
2023/01/29 08:34:55;;;;;;;5.43;2.83;;;7.90;99.90;;;;;;5053403;28;20177;-56
2023/01/29 08:37:20;;;;;;;6.50;3.27;;;7.50;99.90;;;;;;5053267;28;20680;-56
2023/01/29 08:39:46;;;;;;;5.77;3.20;;;7.50;99.90;;;;;;5053286;28;20173;-55
2023/01/29 08:42:12;;;;;;;4.57;2.73;;;7.70;99.90;;;;;;5053291;28;20647;-55
2023/01/29 08:44:37;;;;;;;5.57;3.17;;;7.80;99.90;;;;;;5053413;28;20215;-58
2023/01/29 08:47:03;;;;;;;5.50;2.60;;;;;;;;;;5053292;28;20196;-58
2023/01/29 08:49:29;;;;;;;5.30;2.57;;;7.50;99.90;;;;;;5050006;28;20181;-58
2023/01/29 08:51:55;;;;;;;4.60;2.90;;;7.50;99.90;;;;;;5052344;28;20181;-58
2023/01/29 08:54:22;;;;;;;5.17;2.57;;;7.60;99.90;;;;;;5053132;28;20188;-58
2023/01/29 08:56:47;;;;;;;5.30;2.67;;;7.60;99.90;;;;;;5052988;28;20272;-58
2023/01/29 08:59:13;;;;;;;5.37;2.27;;;7.70;99.90;;;;;;5052035;28;20212;-58
2023/01/29 09:01:39;;;;;;;4.50;2.60;;;8.60;99.90;;;;;;5052464;28;20184;-58
2023/01/29 09:04:05;;;;;;;6.30;2.50;;;7.70;99.90;;;;;;5052510;28;20566;-58
2023/01/29 09:06:30;;;;;;;5.37;2.30;;;7.70;99.90;;;;;;5052802;28;20165;-58
2023/01/29 09:08:56;;;;;;;4.50;2.80;;;7.70;99.90;;;;;;5052769;28;20169;-58
2023/01/29 09:11:22;;;;;;;6.40;2.93;;;7.50;99.90;;;;;;5052741;28;20207;-58
2023/01/29 09:13:47;;;;;;;6.47;2.73;;;7.90;99.90;;;;;;5052731;28;20181;-58
2023/01/29 09:16:13;;;;;;;4.93;2.53;;;7.80;99.90;;;;;;5052580;28;20212;-58
2023/01/29 09:18:38;;;;;;;4.90;2.80;;;7.80;99.90;;;;;;5052566;28;20531;-58
2023/01/29 09:21:04;;;;;;;5.93;2.70;;;7.80;99.90;;;;;;5052501;28;20175;-55
2023/01/29 09:23:30;;;;;;;4.97;2.80;;;7.80;99.90;;;;;;5052548;28;20173;-55
2023/01/29 09:25:56;;;;;;;4.53;2.83;;;7.80;99.90;;;;;;5052487;28;20165;-55
2023/01/29 09:28:22;;;;;;;3.97;2.10;;;7.70;99.90;;;;;;5052354;28;20169;-55
2023/01/29 09:30:48;;;;;;;6.00;2.87;;;7.80;99.90;;;;;;5052457;28;20632;-54
2023/01/29 09:33:14;;;;;;;5.00;2.80;;;7.80;99.90;;;;;;5051505;28;21557;-55
2023/01/29 09:35:44;;;;;;;4.00;2.60;;;7.90;99.90;;;;;;5051390;28;20650;-55
2023/01/29 09:38:10;;;;;;;5.53;2.37;;;7.90;99.90;;;;;;5051814;28;20217;-55
2023/01/29 09:40:57;;;;;;;3.83;2.10;;;7.90;99.90;;;;;;5051462;28;20203;-55
2023/01/29 09:43:37;;;;;;;3.73;1.90;;;8.10;99.90;;;;;;5052136;28;20184;-55
2023/01/29 09:46:20;;;;;;;3.50;1.90;;;8.00;99.90;;;;;;5051758;28;20256;-55
2023/01/29 09:48:50;;;;;;;3.53;2.07;;;7.90;99.90;;;;;;5051538;28;20185;-55
2023/01/29 09:51:30;;;;;;;3.27;1.63;;;7.90;99.90;;;;;;5050289;28;20182;-57
2023/01/29 09:53:56;;;;;;;3.43;1.67;;;;;;;;;;5051975;28;20222;-57
2023/01/29 09:56:27;;;;;;;3.27;1.43;;;7.90;99.90;;;;;;5051474;28;20287;-57
2023/01/29 09:58:56;;;;;;;2.10;1.53;;;7.80;99.90;;;;;;5040610;28;20196;-57
2023/01/29 10:01:51;;;;;;;1.63;1.20;;;7.90;99.90;;;;;;5051024;28;20185;-57
2023/01/29 10:04:26;;;;;;;2.23;1.47;;;7.90;99.90;;;;;;5017755;28;20181;-57
2023/01/29 10:07:00;;;;;;;2.13;1.20;;;8.10;99.90;;;;;;5051172;28;20260;-57
2023/01/29 10:09:32;;;;;;;2.27;1.50;;;7.90;99.90;;;;;;5050816;28;20184;-57
2023/01/29 10:12:32;;;;;;;6.57;1.90;;;7.90;99.90;;;;;;5051126;28;20199;-57
2023/01/29 10:15:31;;;;;;;2.73;1.90;;;7.90;99.90;;;;;;5051562;28;20177;-57
2023/01/29 10:18:05;;;;;;;2.00;1.50;;;8.00;99.90;;;;;;5051445;28;20683;-57
2023/01/29 10:20:39;;;;;;;2.77;1.73;;;8.10;99.90;;;;;;5051494;28;20635;-58
2023/01/29 10:23:27;;;;;;;3.17;1.80;;;7.90;99.90;;;;;;5051111;28;20256;-56
2023/01/29 10:25:54;;;;;;;2.63;1.93;;;7.90;99.90;;;;;;5051302;28;20181;-57
2023/01/29 10:28:45;;;;;;;2.37;1.63;;;8.00;99.90;;;;;;5051090;28;20239;-57
2023/01/29 10:31:28;;;;;;;3.33;2.00;;;8.00;99.90;;;;;;5051540;28;20173;-58
2023/01/29 10:34:18;;;;;;;4.97;1.70;;;8.10;99.90;;;;;;5049297;28;20213;-59
2023/01/29 10:36:48;;;;;;;2.40;1.80;;;8.10;99.90;;;;;;5033296;28;20209;-58
2023/01/29 10:39:19;;;;;;;2.73;1.80;;;8.10;99.90;;;;;;5050860;28;20296;-59
2023/01/29 10:41:59;;;;;;;2.90;1.87;;;7.60;99.90;;;;;;5051168;28;20213;-59
2023/01/29 10:44:46;;;;;;;3.07;1.80;;;8.20;99.90;;;;;;5050588;28;20260;-56
2023/01/29 10:47:39;;;;;;;3.57;2.30;;;8.20;99.90;;;;;;5050860;28;20266;-57
2023/01/29 10:50:04;;;;;;;3.90;2.20;;;8.30;99.90;;;;;;5050658;28;20189;-57
2023/01/29 10:53:04;;;;;;;4.30;1.97;;;8.20;99.90;;;;;;5050529;28;20184;-57
2023/01/29 10:55:48;;;;;;;5.63;2.50;;;8.20;99.90;;;;;;5049095;28;20181;-55
2023/01/29 10:58:19;;;;;;;2.20;1.40;;;8.20;99.90;;;;;;5049825;28;20279;-55
2023/01/29 11:00:45;;;;;;;2.90;1.70;;;8.10;99.90;;;;;;5050682;28;20192;-55
2023/01/29 11:03:37;;;;;;;2.67;1.70;;;8.30;99.90;;;;;;5049817;28;20633;-55
2023/01/29 11:06:27;;;;;;;3.43;1.80;;;8.40;99.90;;;;;;5046592;28;20196;-54
2023/01/29 11:08:58;;;;;;;5.17;1.10;;;8.30;99.90;;;;;;5041650;28;20318;-55
2023/01/29 11:11:53;;;;;;;2.90;1.50;;;8.30;99.90;;;;;;5050542;28;20177;-55
2023/01/29 11:14:25;;;;;;;4.03;1.60;;;8.40;99.90;;;;;;5030710;28;20172;-54
2023/01/29 11:16:51;;;;;;;3.13;1.90;;;8.40;99.90;;;;;;5030565;28;20216;-56
2023/01/29 11:19:17;;;;;;;5.43;2.23;;;8.40;99.90;;;;;;5030686;28;20219;-56
2023/01/29 11:21:54;;;;;;;3.53;1.70;;;8.50;99.90;;;;;;5033766;28;20185;-55
2023/01/29 11:24:20;;;;;;;4.07;1.87;;;;;;;;;;5050589;28;20212;-55
2023/01/29 11:26:48;;;;;;;2.97;1.63;;;8.50;99.90;;;;;;5048754;28;20169;-55
2023/01/29 11:29:32;;;;;;;6.20;2.03;;;9.00;99.90;;;;;;5049471;28;20200;-55
2023/01/29 11:31:59;;;;;;;2.83;1.73;;;8.70;99.90;;;;;;5050540;28;20177;-55
2023/01/29 11:34:31;;;;;;;1.80;1.40;;;8.80;99.90;;;;;;5050340;28;20220;-55
2023/01/29 11:37:02;;;;;;;2.47;1.30;;;8.70;99.90;;;;;;5050311;28;20205;-55
2023/01/29 11:39:29;;;;;;;1.20;0.80;;;8.70;99.90;;;;;;5050501;28;20183;-56
2023/01/29 11:42:03;;;;;;;3.87;0.90;;;8.60;99.90;;;;;;5050495;28;20177;-55
2023/01/29 11:44:40;;;;;;;0.80;0.60;;;8.50;99.90;;;;;;5050141;28;20177;-56
2023/01/29 11:47:19;;;;;;;1.00;0.50;;;8.70;99.90;;;;;;5050420;28;20177;-55
2023/01/29 11:49:54;;;;;;;1.67;0.70;;;8.70;99.90;;;;;;5050334;28;20177;-56
2023/01/29 11:52:23;;;;;;;0.97;0.57;;;8.80;99.90;;;;;;5050388;28;20195;-56
2023/01/29 11:54:50;;;;;;;5.43;0.80;;;8.60;99.90;;;;;;5050355;28;20200;-55
2023/01/29 11:57:27;;;;;;;3.70;1.23;;;8.90;99.90;;;;;;5050097;28;20569;-55
2023/01/29 11:59:57;;;;;;;0.70;0.50;;;9.00;99.90;;;;;;5050230;28;20162;-56
2023/01/29 12:02:30;;;;;;;1.67;1.27;;;9.10;99.90;;;;;;5032668;28;20232;-56
2023/01/29 12:05:14;;;;;;;3.17;1.63;;;9.10;99.90;;;;;;5050324;28;20185;-55
2023/01/29 12:07:51;;;;;;;1.30;0.53;;;9.00;99.90;;;;;;5050198;28;20196;-56
2023/01/29 12:10:35;;;;;;;1.60;0.80;;;9.30;99.90;;;;;;5050137;28;20286;-55
2023/01/29 12:13:14;;;;;;;1.47;0.40;;;9.00;99.90;;;;;;5050027;28;20238;-56
2023/01/29 12:15:41;;;;;;;1.03;0.50;;;9.30;99.90;;;;;;5050209;28;20248;-55
2023/01/29 12:18:31;;;;;;;2.40;1.43;;;9.40;99.90;;;;;;5049911;28;20296;-56
2023/01/29 12:21:45;;;;;;;2.77;1.47;;;9.60;99.90;;;;;;5032142;28;20209;-56
2023/01/29 12:24:17;;;;;;;6.13;2.10;;;9.70;99.90;;;;;;5049676;28;20208;-56
2023/01/29 12:26:56;;;;;;;7.37;2.70;;;9.50;99.90;;;;;;5049932;28;20248;-56
2023/01/29 12:29:49;;;;;;;9.07;6.47;;;9.80;99.90;;;;;;5049957;28;20174;-56
2023/01/29 12:32:21;;;;;;;3.53;1.10;;;9.90;99.90;;;;;;5049630;28;20635;-56
2023/01/29 12:35:00;;;;;;;3.53;1.00;;;10.10;99.90;;;;;;5053490;28;20189;-55
2023/01/29 12:37:59;;;;;;;2.13;0.47;;;10.10;99.90;;;;;;5053327;28;20212;-59
2023/01/29 12:40:30;;;;;;;1.57;0.40;;;10.10;99.90;;;;;;5045857;28;20201;-55
2023/01/29 12:43:03;;;;;;;4.07;0.40;;;10.10;99.90;;;;;;5034564;28;20627;-55
2023/01/29 12:45:31;;;;;;;3.07;0.77;;;10.10;99.90;;;;;;5052683;28;20174;-55
2023/01/29 12:48:03;;;;;;;4.63;0.50;;;10.30;99.90;;;;;;5048104;28;20254;-56
2023/01/29 12:50:33;;;;;;;3.08;0.50;;;10.40;99.90;;;;;;5035603;28;20400;-56
2023/01/29 12:53:00;;;;;;;2.13;0.43;;;10.50;99.90;;;;;;5052411;28;20177;-56
2023/01/29 12:55:46;;;;;;;2.20;0.50;;;10.40;99.90;;;;;;5053135;28;20235;-56
2023/01/29 12:58:20;;;;;;;2.60;1.00;;;10.40;99.90;;;;;;5052765;28;20201;-56
2023/01/29 13:00:50;;;;;;;0.73;0.20;;;10.10;99.90;;;;;;5044077;28;20184;-56
2023/01/29 13:03:28;;;;;;;1.17;0.30;;;10.20;99.90;;;;;;5052951;28;20169;-56
2023/01/29 13:06:08;;;;;;;1.50;0.30;;;10.00;99.90;;;;;;5033080;28;20209;-56
2023/01/29 13:08:57;;;;;;;3.17;1.57;;;10.20;99.90;;;;;;5035940;28;20173;-56
2023/01/29 13:11:46;;;;;;;1.70;0.50;;;10.10;99.90;;;;;;5043605;28;20226;-56
2023/01/29 13:14:27;;;;;;;0.20;0.10;;;10.10;99.90;;;;;;5038227;28;20181;-56
2023/01/29 13:17:07;;;;;;;1.37;0.40;;;9.90;99.90;;;;;;5052029;28;20540;-56
2023/01/29 13:19:44;;;;;;;1.60;0.20;;;9.80;99.90;;;;;;5032785;28;20641;-56
2023/01/29 13:22:21;;;;;;;5.33;0.67;;;9.90;99.90;;;;;;5040996;28;20534;-56
2023/01/29 13:24:47;;;;;;;1.37;0.40;;;9.90;99.90;;;;;;5034882;28;20662;-56
2023/01/29 13:27:27;;;;;;;2.97;0.27;;;10.00;99.90;;;;;;5052447;28;20227;-56
2023/01/29 13:29:54;;;;;;;0.13;0.13;;;10.00;99.90;;;;;;5052200;28;20254;-56
2023/01/29 13:32:29;;;;;;;1.43;0.20;;;10.00;99.90;;;;;;5041773;28;20204;-56
2023/01/29 13:34:58;;;;;;;0.30;0.20;;;10.10;99.90;;;;;;5044505;28;20785;-54
2023/01/29 13:37:34;;;;;;;4.37;0.50;;;10.10;99.90;;;;;;5051608;28;20747;-54
2023/01/29 13:40:02;;;;;;;1.27;0.20;;;10.20;99.90;;;;;;5051333;28;20184;-55
2023/01/29 13:42:45;;;;;;;1.13;0.27;;;10.50;99.90;;;;;;5043634;28;20257;-55
2023/01/29 13:45:20;;;;;;;0.67;0.20;;;10.30;99.90;;;;;;5041936;28;20177;-55